Time;durP1;ratioP1;P1;durP2;ratioP2;P2;SDS_P1;SDS_P2;PMS_P1;PMS_P2;Temp;Humidity;BMP_temperature;BMP_pressure;BME280_temperature;BME280_humidity;BME280_pressure;Samples;Min_cycle;Max_cycle;Signal;HPM_P1;HPM_P2
2021/09/20 00:01:22;;;;;;;5.70;3.25;;;12.40;99.90;;;;;;4781814;29;20079;-90
2021/09/20 00:03:50;;;;;;;5.97;3.75;;;12.40;99.90;;;;;;4769374;30;20055;-91
2021/09/20 00:06:16;;;;;;;3.90;3.08;;;12.40;99.90;;;;;;4783188;29;20452;-91
2021/09/20 00:08:42;;;;;;;3.95;2.95;;;12.40;99.90;;;;;;4786907;29;20085;-90
2021/09/20 00:11:08;;;;;;;7.07;3.50;;;12.40;99.90;;;;;;4765166;29;20050;-90
2021/09/20 00:13:34;;;;;;;8.82;3.65;;;12.40;99.90;;;;;;4796503;29;20055;-91
2021/09/20 00:16:00;;;;;;;3.33;3.03;;;12.50;99.90;;;;;;4773534;29;20054;-90
2021/09/20 00:18:25;;;;;;;8.88;3.33;;;12.50;99.90;;;;;;4768905;29;20109;-90
2021/09/20 00:20:51;;;;;;;13.43;3.30;;;12.50;99.90;;;;;;4777233;29;20047;-90
2021/09/20 00:23:17;;;;;;;6.03;3.50;;;12.50;99.90;;;;;;4770439;29;20098;-92
2021/09/20 00:25:43;;;;;;;12.93;4.38;;;12.50;99.90;;;;;;4779001;29;20082;-90
2021/09/20 00:28:09;;;;;;;4.13;3.42;;;12.60;99.90;;;;;;4756028;29;20501;-90
2021/09/20 00:30:37;;;;;;;6.10;3.85;;;12.50;99.90;;;;;;4786454;29;20273;-90
2021/09/20 00:33:03;;;;;;;6.55;3.72;;;12.60;99.90;;;;;;4785014;29;20055;-90
2021/09/20 00:35:28;;;;;;;7.97;4.10;;;12.60;99.90;;;;;;4801644;29;20073;-90
2021/09/20 00:37:54;;;;;;;8.20;3.63;;;12.60;99.90;;;;;;4784299;29;20058;-90
2021/09/20 00:40:20;;;;;;;16.45;4.68;;;12.60;99.90;;;;;;4791514;29;20069;-90
2021/09/20 00:42:46;;;;;;;6.00;3.70;;;12.60;99.90;;;;;;4792597;29;20042;-89
2021/09/20 00:45:12;;;;;;;6.68;4.18;;;12.60;99.90;;;;;;4792492;29;20055;-91
2021/09/20 00:47:38;;;;;;;8.35;3.70;;;12.60;99.90;;;;;;4788827;29;20073;-90
2021/09/20 00:50:05;;;;;;;6.85;4.25;;;12.60;99.90;;;;;;4802505;29;20058;-90
2021/09/20 00:52:30;;;;;;;7.30;4.43;;;12.60;99.90;;;;;;4800454;29;20055;-90
2021/09/20 00:54:57;;;;;;;7.50;3.80;;;12.60;99.90;;;;;;4803287;29;20069;-90
2021/09/20 00:57:23;;;;;;;14.90;4.18;;;12.60;99.90;;;;;;4793794;29;20046;-90
2021/09/20 00:59:49;;;;;;;8.25;3.88;;;12.60;99.90;;;;;;4792428;29;20099;-90
2021/09/20 01:02:15;;;;;;;11.23;4.35;;;12.60;99.90;;;;;;4788138;29;20046;-89
2021/09/20 01:04:40;;;;;;;6.97;3.63;;;12.60;99.90;;;;;;4783815;29;20043;-90
2021/09/20 01:07:06;;;;;;;11.50;4.40;;;12.60;99.90;;;;;;4789854;29;20354;-89
2021/09/20 01:09:36;;;;;;;5.85;4.25;;;12.60;99.90;;;;;;4791590;29;20054;-89
2021/09/20 01:12:03;;;;;;;6.30;3.67;;;12.60;99.90;;;;;;4792786;29;20125;-89
2021/09/20 01:14:28;;;;;;;9.90;4.20;;;12.60;99.90;;;;;;4806233;29;20050;-89
2021/09/20 01:16:54;;;;;;;7.28;3.92;;;12.60;99.90;;;;;;4812781;29;20459;-90
2021/09/20 01:19:20;;;;;;;11.10;3.72;;;12.60;99.90;;;;;;4802855;29;20057;-91
2021/09/20 01:21:45;;;;;;;4.22;3.60;;;12.60;99.90;;;;;;4772915;29;20480;-89
2021/09/20 01:24:11;;;;;;;8.05;3.97;;;12.70;99.90;;;;;;4793520;29;20108;-90
2021/09/20 01:26:37;;;;;;;8.48;4.22;;;12.60;99.90;;;;;;4790864;29;20104;-90
2021/09/20 01:29:07;;;;;;;5.28;3.88;;;12.60;99.90;;;;;;4799574;29;20496;-89
2021/09/20 01:31:33;;;;;;;6.70;3.70;;;12.70;99.90;;;;;;4817164;29;20556;-90
2021/09/20 01:33:59;;;;;;;10.80;4.00;;;12.60;99.90;;;;;;4792343;29;20062;-88
2021/09/20 01:36:25;;;;;;;6.90;3.75;;;12.60;99.90;;;;;;4768733;30;20047;-89
2021/09/20 01:38:51;;;;;;;11.75;3.95;;;12.60;99.90;;;;;;4769826;30;20047;-88
2021/09/20 01:41:16;;;;;;;7.07;3.30;;;12.60;99.90;;;;;;4785318;29;20078;-91
2021/09/20 01:43:42;;;;;;;10.93;4.10;;;12.60;99.90;;;;;;4792923;29;20557;-90
2021/09/20 01:46:08;;;;;;;14.73;4.53;;;12.60;99.90;;;;;;4770027;29;20063;-90
2021/09/20 01:48:34;;;;;;;6.45;3.78;;;12.60;99.90;;;;;;4752292;30;20108;-90
2021/09/20 01:51:00;;;;;;;6.43;3.30;;;12.60;99.90;;;;;;4767221;29;20063;-89
2021/09/20 01:53:26;;;;;;;7.38;4.05;;;12.60;99.90;;;;;;4756955;30;20054;-90
2021/09/20 01:55:51;;;;;;;9.18;4.15;;;12.60;99.90;;;;;;4770033;30;20078;-90
2021/09/20 01:58:17;;;;;;;7.53;3.95;;;12.60;99.90;;;;;;4783407;29;20051;-90
2021/09/20 02:00:47;;;;;;;9.57;3.75;;;12.60;99.90;;;;;;4780184;29;20269;-91
2021/09/20 02:03:13;;;;;;;6.57;3.88;;;12.60;99.90;;;;;;4771734;29;20052;-91
2021/09/20 02:05:39;;;;;;;7.05;4.20;;;12.60;99.90;;;;;;4769649;30;20059;-90
2021/09/20 02:08:05;;;;;;;6.90;3.40;;;12.50;99.90;;;;;;4773086;29;20135;-90
2021/09/20 02:10:31;;;;;;;9.27;3.65;;;12.50;99.90;;;;;;4766014;29;20101;-89
2021/09/20 02:12:57;;;;;;;8.18;3.28;;;12.60;99.90;;;;;;4779135;29;20063;-89
2021/09/20 02:15:23;;;;;;;5.00;3.50;;;12.50;99.90;;;;;;4751873;30;20055;-91
2021/09/20 02:17:48;;;;;;;6.30;3.55;;;12.50;99.90;;;;;;4751406;30;20058;-92
2021/09/20 02:20:14;;;;;;;6.72;3.60;;;12.50;99.90;;;;;;4773168;29;20056;-90
2021/09/20 02:22:40;;;;;;;6.07;3.35;;;12.50;99.90;;;;;;4783771;29;20060;-90
2021/09/20 02:25:08;;;;;;;5.68;3.60;;;12.50;99.90;;;;;;4778698;30;20066;-89
2021/09/20 02:27:36;;;;;;;9.20;3.50;;;12.50;99.90;;;;;;4771305;29;20055;-90
2021/09/20 02:30:04;;;;;;;9.40;3.55;;;12.50;99.90;;;;;;4778466;29;20063;-91
2021/09/20 02:32:32;;;;;;;5.35;3.25;;;12.50;99.90;;;;;;4778076;29;20089;-92
2021/09/20 02:34:58;;;;;;;10.50;3.55;;;12.50;99.90;;;;;;4784171;29;20055;-92
2021/09/20 02:37:23;;;;;;;8.65;4.22;;;12.50;99.90;;;;;;4763973;30;20108;-92
2021/09/20 02:39:49;;;;;;;6.25;3.47;;;12.50;99.90;;;;;;4781595;29;20505;-89
2021/09/20 02:42:15;;;;;;;4.95;3.28;;;12.50;99.90;;;;;;4783770;29;20089;-90
2021/09/20 02:44:40;;;;;;;4.03;3.15;;;12.40;99.90;;;;;;4785335;29;20054;-91
2021/09/20 02:47:06;;;;;;;6.50;3.13;;;12.50;99.90;;;;;;4749800;30;20047;-90
2021/09/20 02:49:32;;;;;;;4.78;3.13;;;12.40;99.90;;;;;;4811396;29;20082;-91
2021/09/20 02:51:58;;;;;;;6.80;3.30;;;12.50;99.90;;;;;;4753189;30;20051;-90
2021/09/20 02:54:23;;;;;;;6.57;3.47;;;12.50;99.90;;;;;;4777063;29;20048;-90
2021/09/20 02:56:49;;;;;;;4.50;3.30;;;12.40;99.90;;;;;;4784305;29;20541;-91
2021/09/20 02:59:15;;;;;;;6.18;3.47;;;12.40;99.90;;;;;;4769783;30;20095;-91
2021/09/20 03:01:40;;;;;;;5.18;3.22;;;12.50;99.90;;;;;;4767609;29;20051;-91
2021/09/20 03:04:06;;;;;;;5.10;3.03;;;12.50;99.90;;;;;;4772048;30;20401;-90
2021/09/20 03:06:32;;;;;;;5.70;3.75;;;12.40;99.90;;;;;;4775885;29;20094;-91
2021/09/20 03:08:57;;;;;;;8.50;3.13;;;12.40;99.90;;;;;;4783524;29;20396;-91
2021/09/20 03:11:23;;;;;;;8.05;3.60;;;12.40;99.90;;;;;;4776210;29;20066;-91
2021/09/20 03:13:49;;;;;;;6.05;3.53;;;12.40;99.90;;;;;;4787061;29;20066;-91
2021/09/20 03:16:14;;;;;;;7.20;3.58;;;12.40;99.90;;;;;;4775076;29;20047;-90
2021/09/20 03:18:40;;;;;;;10.68;3.05;;;12.40;99.90;;;;;;4772300;30;20043;-90
2021/09/20 03:21:06;;;;;;;6.97;3.38;;;12.40;99.90;;;;;;4787552;29;20080;-90
2021/09/20 03:23:31;;;;;;;3.55;2.97;;;12.40;99.90;;;;;;4780178;29;20058;-91
2021/09/20 03:25:57;;;;;;;8.50;3.33;;;12.40;99.90;;;;;;4773961;29;20055;-90
2021/09/20 03:28:23;;;;;;;4.78;2.90;;;12.40;99.90;;;;;;4772396;30;20061;-91
2021/09/20 03:30:48;;;;;;;8.82;3.30;;;12.30;99.90;;;;;;4771834;30;20523;-91
2021/09/20 03:33:14;;;;;;;7.93;2.90;;;12.40;99.90;;;;;;4780151;29;20211;-91
2021/09/20 03:35:40;;;;;;;6.68;3.20;;;12.40;99.90;;;;;;4797490;29;20066;-90
2021/09/20 03:38:05;;;;;;;7.28;3.10;;;12.40;99.90;;;;;;4793246;29;20057;-89
2021/09/20 03:40:31;;;;;;;5.20;3.00;;;12.40;99.90;;;;;;4807136;29;20126;-91
2021/09/20 03:42:57;;;;;;;7.03;3.25;;;12.40;99.90;;;;;;4792399;29;20050;-89
2021/09/20 03:45:23;;;;;;;8.45;3.13;;;12.30;99.90;;;;;;4798972;29;20058;-89
2021/09/20 03:47:49;;;;;;;6.63;2.67;;;12.30;99.90;;;;;;4785687;29;20142;-89
2021/09/20 03:50:15;;;;;;;5.80;3.00;;;12.30;99.90;;;;;;4825015;29;20342;-89
2021/09/20 03:52:42;;;;;;;6.47;3.35;;;12.30;99.90;;;;;;4811990;29;20549;-89
2021/09/20 03:55:09;;;;;;;4.97;2.90;;;12.30;99.90;;;;;;4778980;29;20054;-90
2021/09/20 03:57:35;;;;;;;4.68;3.28;;;12.30;99.90;;;;;;4800516;29;20050;-89
2021/09/20 04:00:00;;;;;;;5.65;2.85;;;12.30;99.90;;;;;;4779482;29;20062;-90
2021/09/20 04:02:26;;;;;;;6.47;2.83;;;12.30;99.90;;;;;;4802087;29;20099;-89
2021/09/20 04:04:52;;;;;;;7.68;3.05;;;12.30;99.90;;;;;;4791944;29;20065;-90
2021/09/20 04:07:17;;;;;;;7.93;3.42;;;12.30;99.90;;;;;;4792413;29;20111;-89
2021/09/20 04:09:43;;;;;;;6.78;2.83;;;12.30;99.90;;;;;;4788780;29;20146;-90
2021/09/20 04:12:09;;;;;;;6.32;3.25;;;12.30;99.90;;;;;;4793228;29;20054;-89
2021/09/20 04:14:37;;;;;;;4.93;2.70;;;12.30;99.90;;;;;;4813660;29;20504;-90
2021/09/20 04:17:07;;;;;;;5.53;2.85;;;12.30;99.90;;;;;;4794397;29;20543;-89
2021/09/20 04:19:33;;;;;;;10.07;2.70;;;12.30;99.90;;;;;;4802122;29;20092;-90
2021/09/20 04:21:59;;;;;;;8.93;3.13;;;12.30;99.90;;;;;;4798273;29;20062;-89
2021/09/20 04:24:25;;;;;;;6.43;2.95;;;12.30;99.90;;;;;;4789980;29;20469;-90
2021/09/20 04:26:50;;;;;;;4.55;2.45;;;12.30;99.90;;;;;;4795941;29;20104;-90
2021/09/20 04:29:16;;;;;;;4.90;2.53;;;12.30;99.90;;;;;;4792217;29;20054;-91
2021/09/20 04:31:42;;;;;;;4.68;2.75;;;12.30;99.90;;;;;;4781738;29;20053;-91
2021/09/20 04:34:07;;;;;;;4.20;2.92;;;12.30;99.90;;;;;;4792785;29;20065;-90
2021/09/20 04:36:33;;;;;;;5.75;2.80;;;12.30;99.90;;;;;;4792735;29;20051;-91
2021/09/20 04:38:59;;;;;;;5.70;3.05;;;12.30;99.90;;;;;;4797161;29;20054;-90
2021/09/20 04:41:25;;;;;;;2.85;2.40;;;12.30;99.90;;;;;;4787406;29;20496;-91
2021/09/20 04:43:50;;;;;;;6.55;3.00;;;12.30;99.90;;;;;;4789255;29;20060;-91
2021/09/20 04:46:16;;;;;;;6.18;3.15;;;12.20;99.90;;;;;;4788176;29;20054;-91
2021/09/20 04:48:41;;;;;;;5.40;2.70;;;12.20;99.90;;;;;;4786607;29;20061;-91
2021/09/20 04:51:07;;;;;;;2.90;2.60;;;12.20;99.90;;;;;;4796089;29;20051;-91
2021/09/20 04:53:33;;;;;;;4.05;2.45;;;12.20;99.90;;;;;;4773188;29;20054;-91
2021/09/20 04:55:59;;;;;;;8.90;3.22;;;12.20;99.90;;;;;;4792029;29;20058;-90
2021/09/20 04:58:24;;;;;;;2.60;2.40;;;12.20;99.90;;;;;;4790134;29;20095;-89
2021/09/20 05:00:50;;;;;;;5.53;3.10;;;12.20;99.90;;;;;;4793439;29;20184;-91
2021/09/20 05:03:16;;;;;;;14.98;3.00;;;12.20;99.90;;;;;;4791851;29;20058;-91
2021/09/20 05:05:41;;;;;;;4.18;2.55;;;12.20;99.90;;;;;;4790826;29;20046;-91
2021/09/20 05:08:07;;;;;;;3.40;2.55;;;12.20;99.90;;;;;;4791395;29;20507;-91
2021/09/20 05:10:33;;;;;;;4.00;2.42;;;12.20;99.90;;;;;;4815412;29;20053;-90
2021/09/20 05:12:58;;;;;;;5.47;2.47;;;12.20;99.90;;;;;;4784915;29;20050;-91
2021/09/20 05:15:24;;;;;;;6.53;3.00;;;12.20;99.90;;;;;;4781421;29;20586;-91
2021/09/20 05:17:50;;;;;;;4.65;2.70;;;12.20;99.90;;;;;;4800947;29;20062;-91
2021/09/20 05:20:18;;;;;;;7.75;2.72;;;12.20;99.90;;;;;;4783646;29;20222;-91
2021/09/20 05:22:43;;;;;;;3.97;2.45;;;12.20;99.90;;;;;;4805608;29;20051;-91
2021/09/20 05:25:10;;;;;;;4.45;2.50;;;12.20;99.90;;;;;;4806118;29;20081;-90
2021/09/20 05:27:36;;;;;;;3.05;2.72;;;12.20;99.90;;;;;;4794259;29;20089;-89
2021/09/20 05:30:04;;;;;;;7.22;2.65;;;12.20;99.90;;;;;;4797460;29;20132;-90
2021/09/20 05:32:30;;;;;;;4.18;2.85;;;12.20;99.90;;;;;;4808334;29;20064;-91
2021/09/20 05:34:56;;;;;;;3.67;2.55;;;12.10;99.90;;;;;;4810839;29;20801;-94
2021/09/20 05:37:22;;;;;;;3.38;2.60;;;12.10;99.90;;;;;;4804410;29;20054;-92
2021/09/20 05:39:48;;;;;;;6.93;2.75;;;12.20;99.90;;;;;;4806751;29;20054;-90
2021/09/20 05:42:15;;;;;;;2.78;2.55;;;12.20;99.90;;;;;;4800805;29;20100;-90
2021/09/20 05:44:42;;;;;;;6.18;3.80;;;12.20;99.90;;;;;;4805547;29;20057;-91
2021/09/20 05:47:08;;;;;;;4.63;3.30;;;12.20;99.90;;;;;;4791593;29;20543;-92
2021/09/20 05:49:33;;;;;;;7.40;3.33;;;12.20;99.90;;;;;;4793754;29;20050;-89
2021/09/20 05:51:59;;;;;;;7.38;2.65;;;12.20;99.90;;;;;;4802237;29;20046;-90
2021/09/20 05:54:25;;;;;;;6.80;2.88;;;12.20;99.90;;;;;;4795815;29;20057;-91
2021/09/20 05:56:50;;;;;;;6.88;2.90;;;12.20;99.90;;;;;;4813044;29;20434;-91
2021/09/20 05:59:16;;;;;;;4.80;2.70;;;12.20;99.90;;;;;;4779281;29;20055;-91
2021/09/20 06:01:42;;;;;;;3.08;2.78;;;12.20;99.90;;;;;;4812677;29;20065;-90
2021/09/20 06:04:07;;;;;;;4.22;2.75;;;12.20;99.90;;;;;;4791284;29;20054;-91
2021/09/20 06:06:33;;;;;;;5.95;2.40;;;12.30;99.90;;;;;;4805860;29;20046;-90
2021/09/20 06:08:59;;;;;;;3.25;2.47;;;12.30;99.90;;;;;;4769247;29;20072;-91
2021/09/20 06:11:25;;;;;;;5.75;2.33;;;12.30;99.90;;;;;;4789956;29;20361;-91
2021/09/20 06:13:50;;;;;;;10.60;2.65;;;12.30;99.90;;;;;;4803866;29;20046;-92
2021/09/20 06:16:16;;;;;;;8.30;3.08;;;12.40;99.90;;;;;;4795331;29;20525;-91
2021/09/20 06:18:42;;;;;;;10.75;2.72;;;12.40;99.90;;;;;;4769714;29;20073;-92
2021/09/20 06:21:08;;;;;;;6.15;2.92;;;12.40;99.90;;;;;;4802237;29;20137;-91
2021/09/20 06:23:33;;;;;;;6.32;2.80;;;12.40;99.90;;;;;;4790710;29;20057;-90
2021/09/20 06:25:59;;;;;;;4.72;2.20;;;12.50;99.90;;;;;;4775672;29;20063;-90
2021/09/20 06:28:25;;;;;;;5.95;2.70;;;12.50;99.90;;;;;;4794089;29;20113;-91
2021/09/20 06:30:51;;;;;;;3.63;2.20;;;12.50;99.90;;;;;;4802435;29;20078;-90
2021/09/20 06:33:17;;;;;;;5.32;2.47;;;12.60;99.90;;;;;;4789581;29;20066;-90
2021/09/20 06:35:43;;;;;;;3.88;2.55;;;12.60;99.90;;;;;;4760225;29;20088;-90
2021/09/20 06:38:09;;;;;;;2.83;2.53;;;12.60;99.90;;;;;;4803048;29;20500;-90
2021/09/20 06:40:35;;;;;;;4.40;2.22;;;12.60;99.90;;;;;;4794446;29;20050;-89
2021/09/20 06:43:01;;;;;;;5.22;2.65;;;12.60;99.90;;;;;;4799398;29;20072;-90
2021/09/20 06:45:26;;;;;;;4.32;2.47;;;12.70;99.90;;;;;;4801569;29;20053;-89
2021/09/20 06:47:52;;;;;;;7.45;2.35;;;12.70;99.90;;;;;;4808388;29;20115;-90
2021/09/20 06:50:19;;;;;;;8.75;2.72;;;12.80;99.90;;;;;;4794001;29;20054;-90
2021/09/20 06:52:44;;;;;;;7.63;3.75;;;12.80;99.90;;;;;;4826222;29;20061;-89
2021/09/20 06:55:11;;;;;;;7.55;2.38;;;12.80;99.90;;;;;;4791110;29;20130;-90
2021/09/20 06:57:37;;;;;;;6.38;2.50;;;12.80;99.90;;;;;;4799362;29;20061;-90
2021/09/20 07:00:05;;;;;;;6.43;2.40;;;12.90;99.90;;;;;;4791782;29;20058;-90
2021/09/20 07:02:31;;;;;;;7.78;2.35;;;12.90;99.90;;;;;;4797863;29;20046;-90
2021/09/20 07:04:56;;;;;;;3.80;2.30;;;13.00;99.90;;;;;;4802656;29;20066;-91
2021/09/20 07:07:23;;;;;;;5.15;2.35;;;13.00;99.90;;;;;;4790428;29;20046;-90
2021/09/20 07:09:48;;;;;;;4.35;2.35;;;13.10;99.90;;;;;;4798499;29;20057;-91
2021/09/20 07:12:14;;;;;;;9.25;2.38;;;13.10;99.90;;;;;;4790203;29;20046;-90
2021/09/20 07:14:40;;;;;;;8.75;2.40;;;13.20;99.90;;;;;;4793960;29;20043;-90
2021/09/20 07:17:06;;;;;;;3.95;2.47;;;13.20;99.90;;;;;;4790728;29;20652;-90
2021/09/20 07:19:31;;;;;;;5.10;2.08;;;13.30;99.90;;;;;;4788120;29;20504;-90
2021/09/20 07:21:57;;;;;;;5.63;1.98;;;13.30;99.90;;;;;;4794159;29;20058;-92
2021/09/20 07:24:23;;;;;;;4.20;2.17;;;13.30;99.90;;;;;;4798967;29;20050;-92
2021/09/20 07:26:49;;;;;;;3.60;1.90;;;13.40;99.90;;;;;;4771112;29;20138;-91
2021/09/20 07:29:14;;;;;;;4.70;2.10;;;13.50;99.90;;;;;;4792074;29;20516;-90
2021/09/20 07:31:40;;;;;;;2.30;2.10;;;13.60;99.90;;;;;;4778692;29;20058;-91
2021/09/20 07:34:06;;;;;;;5.28;2.08;;;13.60;99.90;;;;;;4791801;29;20055;-92
2021/09/20 07:36:32;;;;;;;2.45;1.73;;;13.70;99.90;;;;;;4790115;29;20058;-91
2021/09/20 07:38:57;;;;;;;2.47;2.00;;;13.70;99.90;;;;;;4797851;29;20057;-91
2021/09/20 07:41:23;;;;;;;4.25;2.03;;;13.70;99.90;;;;;;4802396;29;20118;-90
2021/09/20 07:43:49;;;;;;;4.82;2.63;;;13.80;99.90;;;;;;4789067;29;20058;-91
2021/09/20 07:46:19;;;;;;;3.80;1.98;;;13.80;99.90;;;;;;4772696;29;20488;-91
2021/09/20 07:48:45;;;;;;;;;;;13.80;99.90;;;;;;4798015;29;20056;-91
2021/09/20 07:51:11;;;;;;;5.85;1.77;;;13.90;99.90;;;;;;4794160;29;19929;-91
2021/09/20 07:53:37;;;;;;;4.05;1.92;;;13.90;99.90;;;;;;4796565;29;20046;-90
2021/09/20 07:56:03;;;;;;;6.45;1.88;;;14.00;99.90;;;;;;4784648;29;20123;-90
2021/09/20 07:58:28;;;;;;;3.33;1.98;;;14.00;99.90;;;;;;4774350;29;20051;-89
2021/09/20 08:00:54;;;;;;;6.15;2.22;;;14.00;99.90;;;;;;4788690;29;20191;-93
2021/09/20 08:03:20;;;;;;;2.13;1.63;;;14.00;99.90;;;;;;4788643;29;20149;-92
2021/09/20 08:05:46;;;;;;;3.08;1.80;;;14.10;99.90;;;;;;4775128;29;20104;-91
2021/09/20 08:08:12;;;;;;;4.75;1.90;;;14.10;99.90;;;;;;4800741;29;20066;-92
2021/09/20 08:10:38;;;;;;;4.20;1.88;;;14.20;99.90;;;;;;4777524;29;20559;-91
2021/09/20 08:13:05;;;;;;;2.97;1.90;;;14.20;99.90;;;;;;4798718;29;20046;-91
2021/09/20 08:15:31;;;;;;;3.85;1.85;;;14.30;99.90;;;;;;4798312;29;20090;-92
2021/09/20 08:17:57;;;;;;;4.05;1.80;;;14.40;99.90;;;;;;4791582;29;20055;-92
2021/09/20 08:20:23;;;;;;;3.88;1.73;;;14.40;99.90;;;;;;4784516;29;20066;-91
2021/09/20 08:22:49;;;;;;;3.72;1.52;;;14.50;99.90;;;;;;4807093;29;20061;-91
2021/09/20 08:25:17;;;;;;;5.82;1.60;;;14.50;99.90;;;;;;4807030;29;20050;-91
2021/09/20 08:27:43;;;;;;;3.38;1.65;;;14.60;99.90;;;;;;4804897;29;20130;-90
2021/09/20 08:30:10;;;;;;;2.55;1.50;;;14.60;99.90;;;;;;4788237;29;20145;-89
2021/09/20 08:32:36;;;;;;;2.50;1.50;;;14.60;99.90;;;;;;4792279;29;20404;-91
2021/09/20 08:35:02;;;;;;;1.95;1.20;;;14.70;99.90;;;;;;4796825;29;20082;-92
2021/09/20 08:37:28;;;;;;;4.72;1.63;;;14.70;99.90;;;;;;4799278;29;20085;-90
2021/09/20 08:39:54;;;;;;;4.03;1.50;;;14.80;99.90;;;;;;4801646;29;20465;-91
2021/09/20 08:42:20;;;;;;;2.30;1.42;;;14.90;99.90;;;;;;4789458;29;20115;-90
2021/09/20 08:44:46;;;;;;;1.25;1.00;;;15.00;99.90;;;;;;4794624;29;20078;-90
2021/09/20 08:47:16;;;;;;;3.10;1.30;;;15.10;99.90;;;;;;4776503;29;20078;-90
2021/09/20 08:49:43;;;;;;;1.67;1.45;;;15.10;99.90;;;;;;4801517;29;20492;-91
2021/09/20 08:52:09;;;;;;;3.75;1.80;;;15.10;99.90;;;;;;4813209;29;20058;-91
2021/09/20 08:54:35;;;;;;;2.55;1.20;;;15.10;99.90;;;;;;4792190;29;20441;-91
2021/09/20 08:57:01;;;;;;;2.03;1.40;;;15.10;99.90;;;;;;4799132;29;20054;-91
2021/09/20 08:59:28;;;;;;;2.17;1.38;;;15.20;99.90;;;;;;4791831;29;20046;-90
2021/09/20 09:01:55;;;;;;;3.78;1.88;;;15.20;99.90;;;;;;4782241;29;20043;-92
2021/09/20 09:04:32;;;;;;;3.72;1.25;;;15.30;99.90;;;;;;4791154;29;20050;-91
2021/09/20 09:07:02;;;;;;;5.80;1.52;;;15.30;99.90;;;;;;4775362;29;20046;-91
2021/09/20 09:09:50;;;;;;;1.98;1.20;;;15.40;99.90;;;;;;4804447;29;20053;-91
2021/09/20 09:12:25;;;;;;;2.95;1.55;;;15.50;99.90;;;;;;4808180;29;20085;-90
2021/09/20 09:14:58;;;;;;;1.55;1.40;;;15.50;99.90;;;;;;4788809;29;20085;-91
2021/09/20 09:17:29;;;;;;;2.08;1.27;;;15.60;99.90;;;;;;4789101;29;20055;-90
2021/09/20 09:20:05;;;;;;;5.20;1.58;;;15.60;99.90;;;;;;4800031;29;20057;-92
2021/09/20 09:22:51;;;;;;;1.17;1.05;;;15.60;99.90;;;;;;4774627;29;20055;-91
2021/09/20 09:25:27;;;;;;;6.82;1.67;;;15.80;99.90;;;;;;4797589;29;20133;-90
2021/09/20 09:28:02;;;;;;;3.60;1.00;;;15.80;99.90;;;;;;4791208;29;20506;-90
2021/09/20 09:30:40;;;;;;;2.53;1.45;;;15.70;99.90;;;;;;4799351;29;20121;-91
2021/09/20 09:33:37;;;;;;;4.10;1.30;;;15.80;99.90;;;;;;4791228;29;20068;-90
2021/09/20 09:36:04;;;;;;;6.95;1.67;;;15.80;99.90;;;;;;4766842;29;20062;-91
2021/09/20 09:38:30;;;;;;;4.78;1.55;;;15.90;99.90;;;;;;4784049;29;20059;-91
2021/09/20 09:41:02;;;;;;;3.15;1.60;;;15.90;99.90;;;;;;4774164;29;20053;-91
2021/09/20 09:43:31;;;;;;;5.03;1.42;;;16.10;99.90;;;;;;4790308;29;20118;-90
2021/09/20 09:46:00;;;;;;;2.78;1.38;;;16.10;99.90;;;;;;4795726;29;20150;-91
2021/09/20 09:48:32;;;;;;;2.72;1.35;;;16.10;99.90;;;;;;4790396;29;20077;-91
2021/09/20 09:51:01;;;;;;;1.85;1.30;;;16.20;99.90;;;;;;4785736;29;20100;-90
2021/09/20 09:53:34;;;;;;;4.18;1.60;;;16.30;99.90;;;;;;4787939;29;20061;-90
2021/09/20 09:56:24;;;;;;;4.32;1.35;;;16.30;99.90;;;;;;4794514;29;20074;-91
2021/09/20 09:58:53;;;;;;;;;;;16.50;99.90;;;;;;4794664;29;20050;-91
2021/09/20 10:01:21;;;;;;;1.63;1.27;;;16.60;99.90;;;;;;4775690;29;20036;-91
2021/09/20 10:04:13;;;;;;;5.80;1.63;;;16.70;99.90;;;;;;4779500;29;20081;-92
2021/09/20 10:06:42;;;;;;;2.35;1.27;;;16.90;99.90;;;;;;4793787;29;20051;-92
2021/09/20 10:09:15;;;;;;;3.20;1.65;;;17.00;99.90;;;;;;4785711;29;20055;-92
2021/09/20 10:11:45;;;;;;;2.33;1.20;;;17.10;99.90;;;;;;4790329;29;20046;-92
2021/09/20 10:14:12;;;;;;;3.03;1.15;;;17.20;99.90;;;;;;4805315;29;20488;-90
2021/09/20 10:16:39;;;;;;;2.85;1.40;;;17.20;99.90;;;;;;4791457;29;20056;-91
2021/09/20 10:19:05;;;;;;;5.55;1.35;;;17.30;99.90;;;;;;4776646;29;20065;-92
2021/09/20 10:21:31;;;;;;;4.28;1.58;;;17.30;99.90;;;;;;4791549;29;20046;-92
2021/09/20 10:23:59;;;;;;;5.43;1.33;;;17.20;99.90;;;;;;4786158;29;20058;-91
2021/09/20 10:26:26;;;;;;;4.68;1.50;;;17.20;99.90;;;;;;4788001;29;20071;-92
2021/09/20 10:28:57;;;;;;;6.30;1.48;;;17.20;99.90;;;;;;4774721;29;20130;-93
2021/09/20 10:31:25;;;;;;;2.28;1.33;;;17.30;99.90;;;;;;4773096;29;20047;-92
2021/09/20 10:34:20;;;;;;;4.00;1.67;;;17.50;99.90;;;;;;4771213;29;20059;-92
2021/09/20 10:36:53;;;;;;;4.43;2.53;;;17.60;99.90;;;;;;4766361;30;20089;-92
2021/09/20 10:39:47;;;;;;;5.97;1.13;;;17.70;99.90;;;;;;4754726;30;20097;-92
2021/09/20 10:42:35;;;;;;;4.25;1.40;;;17.90;99.90;;;;;;4763802;29;20120;-92
2021/09/20 10:45:06;;;;;;;2.70;1.20;;;18.10;99.90;;;;;;4753686;30;20051;-92
2021/09/20 10:47:44;;;;;;;5.80;1.25;;;18.20;99.90;;;;;;4756803;30;20139;-92
2021/09/20 10:50:12;;;;;;;4.22;1.17;;;18.20;99.90;;;;;;4766346;29;20064;-92
2021/09/20 10:53:33;;;;;;;4.40;1.23;;;18.20;99.90;;;;;;4768562;29;20074;-92
2021/09/20 10:56:01;;;;;;;4.68;1.15;;;18.20;99.90;;;;;;4741785;30;20064;-91
2021/09/20 10:58:28;;;;;;;5.97;1.20;;;18.40;99.20;;;;;;4773061;29;20115;-92
2021/09/20 11:01:12;;;;;;;5.22;1.00;;;18.30;99.60;;;;;;4761800;30;20047;-91
2021/09/20 11:03:55;;;;;;;3.83;1.17;;;18.20;99.00;;;;;;4775133;29;20047;-92
2021/09/20 11:06:22;;;;;;;2.80;1.50;;;18.20;98.80;;;;;;4764954;29;20621;-92
2021/09/20 11:09:02;;;;;;;2.40;1.25;;;18.10;98.30;;;;;;4751146;29;20048;-93
2021/09/20 11:11:47;;;;;;;5.05;1.50;;;18.10;99.30;;;;;;4772770;29;20128;-92
2021/09/20 11:14:35;;;;;;;4.57;1.55;;;18.20;99.40;;;;;;4793018;29;20054;-92
2021/09/20 11:17:15;;;;;;;3.05;1.10;;;18.20;99.10;;;;;;4766022;29;20079;-92
2021/09/20 11:19:44;;;;;;;4.25;1.15;;;18.20;98.40;;;;;;4766347;30;20047;-92
2021/09/20 11:22:13;;;;;;;1.95;1.13;;;18.30;98.70;;;;;;4757035;30;20090;-92
2021/09/20 11:24:46;;;;;;;5.90;1.35;;;18.40;97.70;;;;;;4763926;30;20493;-92
2021/09/20 11:27:22;;;;;;;2.13;0.80;;;18.50;97.70;;;;;;4773757;29;20051;-92
2021/09/20 11:29:50;;;;;;;3.97;1.20;;;18.40;98.20;;;;;;4770770;29;20054;-93
2021/09/20 11:32:16;;;;;;;3.15;1.50;;;18.40;97.30;;;;;;4769629;29;20051;-93
2021/09/20 11:34:47;;;;;;;3.20;1.02;;;18.50;97.10;;;;;;4781966;29;20063;-92
2021/09/20 11:37:24;;;;;;;1.00;0.88;;;18.60;97.60;;;;;;4770033;29;20058;-92
2021/09/20 11:39:59;;;;;;;4.95;1.30;;;18.70;97.40;;;;;;4781827;29;20463;-91
2021/09/20 11:42:50;;;;;;;2.38;1.08;;;18.90;97.60;;;;;;4773429;29;20043;-92
2021/09/20 11:45:49;;;;;;;3.03;1.17;;;19.00;96.20;;;;;;4768223;29;20067;-92
2021/09/20 11:48:20;;;;;;;0.95;0.90;;;19.20;97.60;;;;;;4749053;29;20112;-93
2021/09/20 11:50:46;;;;;;;1.48;0.88;;;19.30;97.40;;;;;;4768653;29;20055;-93
2021/09/20 11:53:17;;;;;;;3.10;1.40;;;19.40;97.90;;;;;;4756049;29;20051;-94
2021/09/20 11:55:46;;;;;;;5.57;1.10;;;19.40;96.10;;;;;;4771953;29;20434;-93
2021/09/20 11:58:15;;;;;;;4.15;1.33;;;19.50;95.60;;;;;;4753445;29;20050;-92
2021/09/20 12:00:43;;;;;;;3.50;1.20;;;19.60;95.90;;;;;;4770044;29;20130;-92
2021/09/20 12:03:13;;;;;;;2.17;1.00;;;19.60;96.20;;;;;;4768331;30;20099;-91
2021/09/20 12:05:42;;;;;;;1.80;1.10;;;19.60;95.70;;;;;;4771286;29;20043;-93
2021/09/20 12:08:14;;;;;;;2.38;0.90;;;19.40;95.00;;;;;;4767807;29;20567;-92
2021/09/20 12:10:46;;;;;;;1.75;0.88;;;19.30;94.30;;;;;;4784399;29;20441;-92
2021/09/20 12:13:17;;;;;;;2.20;1.15;;;19.40;95.50;;;;;;4770445;30;20051;-93
2021/09/20 12:15:45;;;;;;;2.20;1.30;;;19.50;95.50;;;;;;4783820;29;20076;-93
2021/09/20 12:18:16;;;;;;;4.22;0.95;;;19.50;95.10;;;;;;4766714;29;20059;-92
2021/09/20 12:20:51;;;;;;;2.97;0.90;;;19.50;95.40;;;;;;4766657;29;20093;-92
2021/09/20 12:23:27;;;;;;;3.10;1.02;;;19.60;92.80;;;;;;4767321;29;20090;-92
2021/09/20 12:26:03;;;;;;;3.05;1.00;;;19.60;93.60;;;;;;4771509;29;20567;-92
2021/09/20 12:28:33;;;;;;;2.85;0.95;;;19.60;92.60;;;;;;4771231;29;20052;-91
2021/09/20 12:31:09;;;;;;;2.05;0.95;;;19.70;92.50;;;;;;4758377;29;20410;-92
2021/09/20 12:33:58;;;;;;;4.25;0.88;;;19.70;91.90;;;;;;4762286;30;20074;-93
2021/09/20 12:36:36;;;;;;;3.47;1.08;;;19.80;93.00;;;;;;4766179;29;20086;-94
2021/09/20 12:39:12;;;;;;;2.00;0.90;;;20.00;92.30;;;;;;4770037;29;20134;-91
2021/09/20 12:41:45;;;;;;;1.25;0.80;;;20.00;92.70;;;;;;4770827;29;20051;-93
2021/09/20 12:44:15;;;;;;;2.80;1.25;;;19.80;90.60;;;;;;4769820;29;20044;-92
2021/09/20 12:46:42;;;;;;;0.98;0.80;;;19.90;90.60;;;;;;4771148;29;20059;-93
2021/09/20 12:49:09;;;;;;;1.80;0.90;;;20.00;91.90;;;;;;4761266;30;20549;-92
2021/09/20 12:51:40;;;;;;;3.65;1.10;;;20.00;92.20;;;;;;4766627;29;20075;-92
2021/09/20 12:54:18;;;;;;;4.03;1.50;;;19.90;92.00;;;;;;4767436;29;20052;-91